createdAt,value
2019-01-30T00:00:24.520Z,0.80
2019-01-30T00:02:51.463Z,0.80
2019-01-30T00:05:18.387Z,0.80
2019-01-30T00:07:45.314Z,0.80
2019-01-30T00:10:12.273Z,0.80
2019-01-30T00:12:39.207Z,3.00
2019-01-30T00:15:06.351Z,0.70
2019-01-30T00:17:33.304Z,0.70
2019-01-30T00:20:00.260Z,0.70
2019-01-30T00:22:27.184Z,1.30
2019-01-30T00:24:54.143Z,0.60
2019-01-30T00:27:21.091Z,0.60
2019-01-30T00:29:48.094Z,0.60
2019-01-30T00:32:15.206Z,0.70
2019-01-30T00:34:42.053Z,1.60
2019-01-30T00:37:08.907Z,0.80
2019-01-30T00:39:35.850Z,0.70
2019-01-30T00:42:02.772Z,0.80
2019-01-30T00:44:29.700Z,0.90
2019-01-30T00:46:56.654Z,1.10
2019-01-30T00:49:23.584Z,0.80
2019-01-30T00:51:50.524Z,0.70
2019-01-30T00:54:17.460Z,0.80
2019-01-30T00:56:44.380Z,-0.80
2019-01-30T00:59:11.305Z,0.80
2019-01-30T01:01:38.261Z,2.20
2019-01-30T01:04:05.191Z,0.80
2019-01-30T01:06:32.157Z,0.80
2019-01-30T01:08:59.100Z,0.80
2019-01-30T01:11:26.038Z,0.80
2019-01-30T01:13:52.985Z,0.70
2019-01-30T01:16:21.259Z,0.70
2019-01-30T01:18:48.204Z,0.70
2019-01-30T01:21:15.120Z,0.80
2019-01-30T01:23:42.058Z,1.80
2019-01-30T01:26:08.993Z,0.70
2019-01-30T01:28:35.923Z,0.70
2019-01-30T01:31:02.877Z,0.70
2019-01-30T01:33:29.809Z,0.80
2019-01-30T01:35:56.746Z,0.60
2019-01-30T01:38:23.716Z,0.70
2019-01-30T01:40:50.640Z,1.20
2019-01-30T01:43:17.580Z,0.60
2019-01-30T01:45:44.560Z,0.60
2019-01-30T01:48:11.487Z,0.70
2019-01-30T01:50:38.420Z,0.70
2019-01-30T01:53:05.395Z,0.60
2019-01-30T01:55:32.323Z,0.60
2019-01-30T01:57:59.255Z,1.80
2019-01-30T02:00:35.169Z,0.60
2019-01-30T02:02:53.143Z,0.50
2019-01-30T02:05:21.060Z,0.60
2019-01-30T02:07:48.003Z,0.80
2019-01-30T02:10:16.920Z,0.70
2019-01-30T02:12:43.851Z,0.60
2019-01-30T02:15:13.072Z,0.60
2019-01-30T02:17:41.393Z,1.50
2019-01-30T02:20:11.573Z,0.60
2019-01-30T02:22:38.547Z,0.60
2019-01-30T02:25:07.308Z,0.60
2019-01-30T02:27:34.266Z,0.60
2019-01-30T02:30:01.196Z,0.60
2019-01-30T02:32:28.128Z,0.60
2019-01-30T02:34:55.051Z,0.70
2019-01-30T02:37:22.003Z,0.80
2019-01-30T02:39:48.948Z,0.70
2019-01-30T02:42:15.894Z,0.70
2019-01-30T02:44:42.859Z,0.70
2019-01-30T02:47:09.815Z,0.70
2019-01-30T02:49:36.767Z,0.80
2019-01-30T02:52:03.770Z,0.70
2019-01-30T02:54:30.688Z,0.80
2019-01-30T02:56:57.604Z,0.70
2019-01-30T02:59:24.548Z,0.70
2019-01-30T03:01:55.011Z,0.60
2019-01-30T03:04:21.961Z,0.70
2019-01-30T03:06:48.919Z,0.70
2019-01-30T03:09:15.843Z,0.80
2019-01-30T03:11:42.767Z,0.80
2019-01-30T03:14:09.715Z,0.70
2019-01-30T03:16:36.648Z,0.90
2019-01-30T03:19:04.038Z,0.70
2019-01-30T03:21:31.011Z,0.80
2019-01-30T03:23:57.947Z,0.80
2019-01-30T03:26:24.886Z,0.80
2019-01-30T03:28:51.831Z,0.80
2019-01-30T03:31:19.549Z,0.80
2019-01-30T03:33:45.699Z,0.80
2019-01-30T03:36:12.647Z,0.80
2019-01-30T03:38:39.585Z,0.70
2019-01-30T03:41:06.535Z,0.80
2019-01-30T03:43:33.491Z,0.80
2019-01-30T03:46:00.420Z,0.80
2019-01-30T03:48:27.352Z,0.80
2019-01-30T03:50:54.362Z,0.80
2019-01-30T03:53:21.288Z,1.40
2019-01-30T03:55:48.227Z,0.80
2019-01-30T03:58:15.177Z,1.20
2019-01-30T04:00:42.116Z,1.60
2019-01-30T04:03:09.049Z,0.80
2019-01-30T04:05:36.007Z,0.80
2019-01-30T04:08:02.945Z,0.80
2019-01-30T04:10:29.863Z,1.10
2019-01-30T04:12:56.829Z,0.90
2019-01-30T04:15:23.742Z,0.80
2019-01-30T04:17:50.668Z,0.90
2019-01-30T04:20:18.958Z,0.80
2019-01-30T04:22:45.960Z,0.90
2019-01-30T04:25:12.896Z,0.90
2019-01-30T04:27:39.858Z,1.00
2019-01-30T04:30:12.704Z,0.90
2019-01-30T04:32:39.628Z,1.00
2019-01-30T04:35:06.570Z,1.00
2019-01-30T04:37:33.497Z,0.90
2019-01-30T04:40:00.442Z,1.00
2019-01-30T04:42:27.752Z,1.00
2019-01-30T04:44:54.679Z,2.70
2019-01-30T04:47:21.607Z,1.70
2019-01-30T04:49:48.553Z,0.90
2019-01-30T04:52:15.491Z,1.00
2019-01-30T04:54:42.423Z,0.80
2019-01-30T04:57:09.394Z,0.90
2019-01-30T04:59:36.341Z,1.00
2019-01-30T05:02:03.301Z,1.10
2019-01-30T05:04:30.268Z,1.00
2019-01-30T05:06:58.494Z,1.90
2019-01-30T05:09:25.528Z,-0.80
2019-01-30T05:11:52.502Z,2.30
2019-01-30T05:14:19.439Z,1.60
2019-01-30T05:16:46.368Z,1.10
2019-01-30T05:19:13.319Z,1.40
2019-01-30T05:21:40.616Z,2.40
2019-01-30T05:24:07.621Z,1.00
2019-01-30T05:26:34.597Z,1.00
2019-01-30T05:29:01.519Z,1.60
2019-01-30T05:31:28.557Z,1.00
2019-01-30T05:33:55.500Z,1.50
2019-01-30T05:36:22.434Z,1.10
2019-01-30T05:38:49.366Z,1.00
2019-01-30T05:41:16.317Z,1.00
2019-01-30T05:43:43.247Z,1.20
2019-01-30T05:46:10.271Z,1.10
2019-01-30T05:48:37.216Z,1.00
2019-01-30T05:51:04.148Z,1.00
2019-01-30T05:53:31.086Z,1.00
2019-01-30T05:55:58.045Z,1.20
2019-01-30T05:58:24.992Z,1.50
2019-01-30T06:00:51.995Z,1.00
2019-01-30T06:03:18.911Z,1.00
2019-01-30T06:05:45.862Z,1.10
2019-01-30T06:08:12.805Z,1.10
2019-01-30T06:10:39.780Z,1.10
2019-01-30T06:13:06.724Z,1.10
2019-01-30T06:15:33.687Z,1.30
2019-01-30T06:18:00.673Z,1.20
2019-01-30T06:20:27.637Z,1.30
2019-01-30T06:22:56.185Z,2.90
2019-01-30T06:25:23.358Z,1.30
2019-01-30T06:27:50.127Z,1.30
2019-01-30T06:30:17.853Z,2.20
2019-01-30T06:32:44.820Z,1.30
2019-01-30T06:35:11.801Z,1.30
2019-01-30T06:37:38.744Z,1.30
2019-01-30T06:40:09.544Z,1.40
2019-01-30T06:42:36.468Z,1.30
2019-01-30T06:45:03.829Z,1.30
2019-01-30T06:47:30.771Z,1.30
2019-01-30T06:49:57.684Z,1.30
2019-01-30T06:52:24.620Z,1.40
2019-01-30T06:54:51.569Z,1.40
2019-01-30T06:57:18.531Z,1.40
2019-01-30T06:59:45.466Z,0.50
2019-01-30T07:02:12.424Z,1.30
2019-01-30T07:04:39.371Z,1.40
2019-01-30T07:07:06.312Z,1.40
2019-01-30T07:09:33.287Z,1.30
2019-01-30T07:12:00.223Z,1.80
2019-01-30T07:14:27.215Z,0.00
2019-01-30T07:16:54.177Z,1.50
2019-01-30T07:19:21.100Z,1.70
2019-01-30T07:21:48.053Z,1.80
2019-01-30T07:24:15.483Z,1.90
2019-01-30T07:26:42.415Z,2.00
2019-01-30T07:29:09.363Z,3.40
2019-01-30T07:31:36.312Z,2.20
2019-01-30T07:34:03.248Z,2.00
2019-01-30T07:36:30.197Z,2.10
2019-01-30T07:38:57.154Z,2.60
2019-01-30T07:41:24.076Z,2.40
2019-01-30T07:43:51.004Z,2.70
2019-01-30T07:46:17.956Z,2.60
2019-01-30T07:48:44.883Z,2.20
2019-01-30T07:51:11.817Z,2.30
2019-01-30T07:53:38.755Z,2.30
2019-01-30T07:56:05.710Z,2.30
2019-01-30T07:58:32.637Z,2.30
2019-01-30T08:00:59.579Z,2.30
2019-01-30T08:03:26.595Z,2.30
2019-01-30T08:05:53.548Z,2.40
2019-01-30T08:08:20.515Z,1.00
2019-01-30T08:10:47.477Z,2.40
2019-01-30T08:13:14.415Z,2.40
2019-01-30T08:15:41.386Z,2.30
2019-01-30T08:18:08.315Z,2.40
2019-01-30T08:20:35.257Z,2.40
2019-01-30T08:23:02.536Z,2.30
2019-01-30T08:25:29.676Z,2.40
2019-01-30T08:27:56.845Z,2.50
2019-01-30T08:30:27.425Z,2.70
2019-01-30T08:33:04.009Z,2.80
2019-01-30T08:35:21.700Z,3.20
2019-01-30T08:37:48.689Z,3.30
2019-01-30T08:40:15.685Z,3.40
2019-01-30T08:42:42.653Z,3.60
2019-01-30T08:45:13.076Z,4.50
2019-01-30T08:47:40.010Z,3.70
2019-01-30T08:50:07.892Z,3.90
2019-01-30T08:52:34.840Z,4.00
2019-01-30T08:55:01.796Z,4.20
2019-01-30T08:57:28.709Z,4.20
2019-01-30T08:59:55.664Z,4.30
2019-01-30T09:02:22.613Z,4.20
2019-01-30T09:04:49.556Z,4.50
2019-01-30T09:07:16.558Z,4.60
2019-01-30T09:09:43.484Z,4.90
2019-01-30T09:12:10.427Z,4.90
2019-01-30T09:14:37.364Z,4.90
2019-01-30T09:17:08.257Z,4.90
2019-01-30T09:19:31.252Z,4.90
2019-01-30T09:21:58.202Z,4.70
2019-01-30T09:24:25.145Z,4.70
2019-01-30T09:26:52.417Z,4.60
2019-01-30T09:29:19.360Z,4.60
2019-01-30T09:31:46.292Z,4.80
2019-01-30T09:34:13.233Z,4.60
2019-01-30T09:36:40.202Z,4.50
2019-01-30T09:39:07.785Z,4.60
2019-01-30T09:41:34.721Z,4.50
2019-01-30T09:44:01.662Z,4.50
2019-01-30T09:46:28.596Z,4.60
2019-01-30T09:48:55.548Z,4.60
2019-01-30T09:51:22.472Z,4.70
2019-01-30T09:53:49.410Z,4.80
2019-01-30T09:56:16.344Z,4.90
2019-01-30T09:58:43.305Z,5.10
2019-01-30T10:01:10.225Z,5.70
2019-01-30T10:03:37.164Z,5.30
2019-01-30T10:06:04.117Z,5.30
2019-01-30T10:08:31.069Z,6.00
2019-01-30T10:10:58.025Z,5.50
2019-01-30T10:13:25.132Z,6.20
2019-01-30T10:15:52.055Z,7.00
2019-01-30T10:18:18.981Z,7.30
2019-01-30T10:20:46.630Z,7.40
2019-01-30T10:23:13.568Z,7.20
2019-01-30T10:25:40.501Z,7.30
2019-01-30T10:28:16.150Z,6.90
2019-01-30T10:30:38.552Z,7.60
2019-01-30T10:33:05.560Z,8.00
2019-01-30T10:35:32.514Z,9.20
2019-01-30T10:37:59.463Z,9.90
2019-01-30T10:40:26.396Z,11.10
2019-01-30T10:42:53.452Z,11.50
2019-01-30T10:45:20.419Z,11.90
2019-01-30T10:47:47.361Z,12.70
2019-01-30T10:50:16.822Z,13.20
2019-01-30T10:52:43.753Z,14.20
2019-01-30T10:55:13.812Z,14.00
2019-01-30T10:57:40.784Z,11.60
2019-01-30T11:00:12.981Z,14.30
2019-01-30T11:02:39.909Z,14.20
2019-01-30T11:05:06.977Z,13.20
2019-01-30T11:07:33.907Z,12.30
2019-01-30T11:10:00.827Z,11.00
2019-01-30T11:12:27.814Z,10.00
2019-01-30T11:14:54.728Z,9.20
2019-01-30T11:17:21.672Z,8.30
2019-01-30T11:19:48.620Z,7.90
2019-01-30T11:22:15.553Z,7.70
2019-01-30T11:24:42.484Z,7.40
2019-01-30T11:27:09.431Z,7.20
2019-01-30T11:29:36.742Z,6.90
2019-01-30T11:32:03.669Z,6.70
2019-01-30T11:34:30.629Z,6.40
2019-01-30T11:37:00.019Z,6.30
2019-01-30T11:39:24.498Z,6.20
2019-01-30T11:41:51.474Z,6.20
2019-01-30T11:44:18.403Z,6.20
2019-01-30T11:46:45.345Z,6.30
2019-01-30T11:49:12.292Z,6.90
2019-01-30T11:51:39.292Z,6.20
2019-01-30T11:54:06.224Z,6.70
2019-01-30T11:56:33.179Z,6.40
2019-01-30T11:59:00.190Z,6.10
2019-01-30T12:01:27.123Z,5.90
2019-01-30T12:03:54.069Z,6.10
2019-01-30T12:06:21.032Z,5.70
2019-01-30T12:08:47.972Z,5.30
2019-01-30T12:11:14.934Z,6.00
2019-01-30T12:13:41.866Z,5.70
2019-01-30T12:16:08.815Z,5.50
2019-01-30T12:18:35.802Z,5.50
2019-01-30T12:21:02.743Z,5.50
2019-01-30T12:23:29.680Z,5.30
2019-01-30T12:25:56.632Z,5.40
2019-01-30T12:28:23.560Z,5.30
2019-01-30T12:30:50.834Z,2.70
2019-01-30T12:33:17.790Z,5.40
2019-01-30T12:35:44.724Z,5.40
2019-01-30T12:38:11.658Z,5.50
2019-01-30T12:40:38.610Z,5.40
2019-01-30T12:43:05.692Z,5.50
2019-01-30T12:45:33.410Z,5.30
2019-01-30T12:48:00.449Z,5.20
2019-01-30T12:50:27.444Z,5.20
2019-01-30T12:52:54.383Z,5.70
2019-01-30T12:55:21.331Z,5.40
2019-01-30T12:57:48.269Z,5.60
2019-01-30T13:00:18.155Z,5.80
2019-01-30T13:02:44.996Z,6.00
2019-01-30T13:05:11.941Z,6.50
2019-01-30T13:07:38.887Z,6.70
2019-01-30T13:10:06.230Z,6.60
2019-01-30T13:12:33.156Z,6.30
2019-01-30T13:15:00.097Z,6.10
2019-01-30T13:17:27.056Z,6.60
2019-01-30T13:19:53.989Z,5.80
2019-01-30T13:22:20.928Z,5.80
2019-01-30T13:24:47.879Z,5.80
2019-01-30T13:27:14.811Z,4.70
2019-01-30T13:29:41.751Z,5.70
2019-01-30T13:32:10.188Z,5.80
2019-01-30T13:34:37.129Z,6.00
2019-01-30T13:37:04.076Z,7.70
2019-01-30T13:39:31.029Z,6.70
2019-01-30T13:41:58.003Z,6.10
2019-01-30T13:44:24.901Z,6.40
2019-01-30T13:46:51.856Z,6.30
2019-01-30T13:49:18.791Z,6.30
2019-01-30T13:51:45.718Z,6.40
2019-01-30T13:54:12.670Z,6.50
2019-01-30T13:56:39.604Z,6.50
2019-01-30T13:59:06.551Z,6.50
2019-01-30T14:01:33.493Z,6.50
2019-01-30T14:04:00.457Z,6.80
2019-01-30T14:06:27.376Z,6.80
2019-01-30T14:08:54.325Z,6.30
2019-01-30T14:11:21.252Z,6.20
2019-01-30T14:13:48.185Z,6.20
2019-01-30T14:16:15.141Z,6.30
2019-01-30T14:18:42.075Z,6.30
2019-01-30T14:21:09.033Z,6.30
2019-01-30T14:23:35.986Z,6.10
2019-01-30T14:26:02.908Z,6.00
2019-01-30T14:28:29.851Z,5.70
2019-01-30T14:30:56.864Z,5.80
2019-01-30T14:33:25.288Z,5.80
2019-01-30T14:35:52.259Z,5.60
2019-01-30T14:38:19.215Z,5.50
2019-01-30T14:40:46.167Z,5.40
2019-01-30T14:43:13.072Z,6.70
2019-01-30T14:45:40.107Z,5.30
2019-01-30T14:48:07.021Z,5.10
2019-01-30T14:50:33.959Z,5.30
2019-01-30T14:53:00.938Z,5.30
2019-01-30T14:55:27.880Z,5.20
2019-01-30T14:57:54.777Z,4.90
2019-01-30T15:00:24.412Z,5.20
2019-01-30T15:02:51.381Z,5.00
2019-01-30T15:05:22.435Z,5.10
2019-01-30T15:07:45.512Z,4.90
2019-01-30T15:10:14.482Z,5.40
2019-01-30T15:12:41.405Z,4.90
2019-01-30T15:15:10.403Z,4.60
2019-01-30T15:17:37.345Z,5.10
2019-01-30T15:20:06.224Z,4.50
2019-01-30T15:22:33.415Z,4.40
2019-01-30T15:25:00.367Z,5.20
2019-01-30T15:27:27.300Z,4.20
2019-01-30T15:29:54.251Z,4.20
2019-01-30T15:32:21.175Z,4.10
2019-01-30T15:34:49.825Z,4.10
2019-01-30T15:37:16.780Z,4.10
2019-01-30T15:39:43.748Z,3.90
2019-01-30T15:42:10.705Z,4.00
2019-01-30T15:44:37.648Z,4.20
2019-01-30T15:47:04.585Z,3.70
2019-01-30T15:49:31.528Z,3.70
2019-01-30T15:51:58.493Z,3.70
2019-01-30T15:54:25.408Z,4.00
2019-01-30T15:56:52.344Z,4.20
2019-01-30T15:59:19.295Z,3.70
2019-01-30T16:01:46.408Z,3.60
2019-01-30T16:04:13.842Z,3.70
2019-01-30T16:06:40.314Z,3.60
2019-01-30T16:09:07.781Z,3.60
2019-01-30T16:11:34.736Z,4.30
2019-01-30T16:14:01.689Z,3.90
2019-01-30T16:16:28.621Z,3.60
2019-01-30T16:18:55.552Z,3.60
2019-01-30T16:21:22.521Z,4.90
2019-01-30T16:23:49.460Z,4.80
2019-01-30T16:26:16.375Z,3.80
2019-01-30T16:28:43.341Z,3.60
2019-01-30T16:31:10.268Z,3.50
2019-01-30T16:33:37.228Z,3.60
2019-01-30T16:36:05.405Z,3.60
2019-01-30T16:38:32.315Z,3.50
2019-01-30T16:40:59.261Z,3.90
2019-01-30T16:43:26.217Z,3.50
2019-01-30T16:45:53.148Z,3.40
2019-01-30T16:48:20.096Z,3.40
2019-01-30T16:50:47.080Z,3.20
2019-01-30T16:53:14.068Z,3.30
2019-01-30T16:55:41.029Z,3.30
2019-01-30T16:58:09.114Z,2.40
2019-01-30T17:00:36.059Z,2.70
2019-01-30T17:03:03.032Z,3.50
2019-01-30T17:05:30.455Z,3.20
2019-01-30T17:07:57.406Z,3.20
2019-01-30T17:10:24.336Z,3.40
2019-01-30T17:12:51.316Z,3.30
2019-01-30T17:15:20.112Z,3.30
2019-01-30T17:17:47.044Z,3.30
2019-01-30T17:20:18.371Z,3.30
2019-01-30T17:22:45.313Z,3.30
2019-01-30T17:25:12.560Z,3.30
2019-01-30T17:27:39.539Z,3.90
2019-01-30T17:30:10.886Z,3.30
2019-01-30T17:32:37.816Z,3.30
2019-01-30T17:35:04.840Z,3.90
2019-01-30T17:37:33.115Z,3.30
2019-01-30T17:40:02.515Z,3.40
2019-01-30T17:42:27.039Z,3.40
2019-01-30T17:44:53.989Z,3.40
2019-01-30T17:47:20.931Z,3.70
2019-01-30T17:49:47.901Z,3.40
2019-01-30T17:52:14.870Z,3.30
2019-01-30T17:54:41.795Z,3.30
2019-01-30T17:57:08.752Z,3.30
2019-01-30T17:59:35.708Z,3.30
2019-01-30T18:02:02.644Z,3.30
2019-01-30T18:04:29.596Z,3.20
2019-01-30T18:06:56.545Z,3.30
2019-01-30T18:09:23.488Z,3.40
2019-01-30T18:11:50.453Z,3.10
2019-01-30T18:14:17.391Z,3.10
2019-01-30T18:16:44.323Z,4.40
2019-01-30T18:19:11.275Z,3.10
2019-01-30T18:21:38.199Z,3.20
2019-01-30T18:24:05.133Z,3.20
2019-01-30T18:26:32.092Z,3.10
2019-01-30T18:28:59.041Z,3.10
2019-01-30T18:31:26.033Z,3.00
2019-01-30T18:33:53.958Z,3.10
2019-01-30T18:36:19.913Z,3.10
2019-01-30T18:38:48.368Z,3.10
2019-01-30T18:41:15.302Z,3.10
2019-01-30T18:43:42.246Z,3.50
2019-01-30T18:46:09.176Z,3.20
2019-01-30T18:48:36.134Z,3.10
2019-01-30T18:51:03.063Z,3.10
2019-01-30T18:53:30.035Z,3.10
2019-01-30T18:55:56.979Z,3.00
2019-01-30T18:58:23.981Z,3.10
2019-01-30T19:00:50.835Z,3.00
2019-01-30T19:03:18.611Z,3.10
2019-01-30T19:05:45.764Z,3.00
2019-01-30T19:08:12.690Z,3.00
2019-01-30T19:10:39.663Z,3.10
2019-01-30T19:13:06.637Z,3.00
2019-01-30T19:15:33.592Z,2.90
2019-01-30T19:18:00.539Z,3.90
2019-01-30T19:20:30.217Z,2.80
2019-01-30T19:22:57.191Z,3.40
2019-01-30T19:25:24.148Z,1.90
2019-01-30T19:27:51.127Z,2.80
2019-01-30T19:30:21.507Z,2.80
2019-01-30T19:32:48.517Z,2.80
2019-01-30T19:35:15.456Z,2.80
2019-01-30T19:37:42.407Z,1.70
2019-01-30T19:40:10.033Z,2.90
2019-01-30T19:42:36.958Z,2.70
2019-01-30T19:45:05.740Z,2.80
2019-01-30T19:47:32.708Z,2.70
2019-01-30T19:49:59.633Z,2.80
2019-01-30T19:52:26.588Z,2.80
2019-01-30T19:54:53.549Z,2.70
2019-01-30T19:57:20.518Z,2.70
2019-01-30T19:59:47.451Z,2.80
2019-01-30T20:02:14.400Z,4.30
2019-01-30T20:04:41.330Z,2.70
2019-01-30T20:07:14.534Z,2.80
2019-01-30T20:09:35.212Z,2.60
2019-01-30T20:12:02.144Z,2.80
2019-01-30T20:14:29.088Z,2.80
2019-01-30T20:16:56.046Z,1.90
2019-01-30T20:19:23.059Z,2.80
2019-01-30T20:21:49.933Z,2.70
2019-01-30T20:24:16.909Z,3.20
2019-01-30T20:26:43.849Z,2.70
2019-01-30T20:29:10.780Z,4.10
2019-01-30T20:31:37.741Z,2.70
2019-01-30T20:34:10.466Z,2.70
2019-01-30T20:36:31.664Z,2.70
2019-01-30T20:38:58.632Z,2.70
2019-01-30T20:41:25.986Z,2.60
2019-01-30T20:43:52.937Z,2.60
2019-01-30T20:46:19.911Z,2.60
2019-01-30T20:48:51.352Z,2.70
2019-01-30T20:51:13.803Z,2.70
2019-01-30T20:53:40.760Z,2.40
2019-01-30T20:56:07.695Z,2.50
2019-01-30T20:58:34.649Z,2.50
2019-01-30T21:01:01.617Z,2.40
2019-01-30T21:03:28.568Z,2.40
2019-01-30T21:05:55.516Z,2.30
2019-01-30T21:08:22.468Z,2.30
2019-01-30T21:10:49.437Z,2.30
2019-01-30T21:13:16.366Z,2.30
2019-01-30T21:15:43.335Z,2.60
2019-01-30T21:18:10.315Z,2.20
2019-01-30T21:20:37.274Z,2.30
2019-01-30T21:23:04.377Z,2.10
2019-01-30T21:25:31.301Z,2.20
2019-01-30T21:27:58.273Z,2.10
2019-01-30T21:30:27.683Z,2.10
2019-01-30T21:32:54.644Z,3.20
2019-01-30T21:35:21.594Z,2.00
2019-01-30T21:37:49.322Z,2.00
2019-01-30T21:40:16.069Z,2.00
2019-01-30T21:42:43.506Z,2.00
2019-01-30T21:45:12.433Z,1.90
2019-01-30T21:47:39.429Z,2.00
2019-01-30T21:50:06.749Z,2.00
2019-01-30T21:52:33.751Z,1.90
2019-01-30T21:55:00.720Z,1.90
2019-01-30T21:57:27.665Z,2.00
2019-01-30T21:59:54.612Z,1.90
2019-01-30T22:02:21.535Z,1.80
2019-01-30T22:04:48.500Z,1.90
2019-01-30T22:07:15.465Z,2.00
2019-01-30T22:09:42.425Z,1.90
2019-01-30T22:12:09.373Z,2.00
2019-01-30T22:14:36.380Z,1.90
2019-01-30T22:17:03.339Z,1.90
2019-01-30T22:19:30.321Z,1.80
2019-01-30T22:21:57.305Z,2.00
2019-01-30T22:24:24.276Z,2.00
2019-01-30T22:26:51.280Z,1.80
2019-01-30T22:29:18.267Z,1.90
2019-01-30T22:31:45.235Z,1.80
2019-01-30T22:34:13.403Z,1.80
2019-01-30T22:36:39.186Z,1.80
2019-01-30T22:39:07.532Z,1.80
2019-01-30T22:41:34.524Z,3.10
2019-01-30T22:44:01.805Z,1.70
2019-01-30T22:46:28.809Z,1.70
2019-01-30T22:48:55.789Z,2.60
2019-01-30T22:51:22.785Z,1.60
2019-01-30T22:53:49.781Z,1.70
2019-01-30T22:56:16.724Z,1.80
2019-01-30T22:58:43.823Z,1.40
2019-01-30T23:01:22.654Z,1.30
2019-01-30T23:04:13.967Z,1.60
2019-01-30T23:07:02.843Z,1.60
2019-01-30T23:09:58.777Z,1.60
2019-01-30T23:12:37.880Z,1.50
2019-01-30T23:15:14.181Z,1.70
2019-01-30T23:17:58.815Z,1.60
2019-01-30T23:20:33.374Z,1.50
2019-01-30T23:23:16.326Z,1.50
2019-01-30T23:25:49.487Z,1.50
2019-01-30T23:28:28.287Z,1.40
2019-01-30T23:31:07.915Z,1.50
2019-01-30T23:34:04.053Z,1.40
2019-01-30T23:37:04.110Z,1.20
2019-01-30T23:39:53.480Z,1.40
2019-01-30T23:42:46.829Z,1.40
2019-01-30T23:45:29.341Z,1.30
2019-01-30T23:48:15.158Z,1.30
2019-01-30T23:51:00.907Z,1.30
2019-01-30T23:53:42.008Z,1.20
2019-01-30T23:56:20.584Z,1.20
2019-01-30T23:58:56.799Z,1.10
